Time;durP1;ratioP1;P1;durP2;ratioP2;P2;SDS_P1;SDS_P2;PMS_P1;PMS_P2;Temp;Humidity;BMP_temperature;BMP_pressure;BME280_temperature;BME280_humidity;BME280_pressure;Samples;Min_cycle;Max_cycle;Signal;HPM_P1;HPM_P2
2022/12/28 00:00:13;;;;;;;;;;;;;;;;;;1880860;28;7018;-63
2022/12/28 00:01:15;;;;;;;;;;;;;;;;;;1882359;28;7013;-61
2022/12/28 00:02:12;;;;;;;;;;;;;;;;;;1882491;28;7109;-63
2022/12/28 00:03:09;;;;;;;;;;;;;;;;;;1882657;28;7077;-62
2022/12/28 00:04:07;;;;;;;;;;;;;;;;;;1881153;28;8004;-62
2022/12/28 00:05:04;;;;;;;;;;;;;;;;;;1881818;28;8316;-61
2022/12/28 00:06:03;;;;;;;;;;;;;;;;;;1882334;28;7457;-62
2022/12/28 00:07:00;;;;;;;;;;;;;;;;;;1882405;28;7456;-62
2022/12/28 00:07:58;;;;;;;;;;;;;;;;;;1882197;28;7359;-62
2022/12/28 00:08:55;;;;;;;;;;;;;;;;;;1882110;28;7123;-61
2022/12/28 00:09:53;;;;;;;;;;;;;;;;;;1882506;28;8107;-61
2022/12/28 00:10:50;;;;;;;;;;;;;;;;;;1882350;28;7037;-62
2022/12/28 00:12:06;;;;;;;;;;;;;;;;;;1882118;28;7132;-62
2022/12/28 00:13:04;;;;;;;;;;;;;;;;;;1882305;28;7009;-62
2022/12/28 00:14:01;;;;;;;;;;;;;;;;;;1882461;28;7147;-63
2022/12/28 00:14:58;;;;;;;;;;;;;;;;;;1882261;28;8003;-61
2022/12/28 00:15:56;;;;;;;;;;;;;;;;;;1882705;28;8033;-61
2022/12/28 00:16:54;;;;;;;;;;;;;;;;;;1880556;28;7084;-61
2022/12/28 00:17:51;;;;;;;;;;;;;;;;;;1881906;28;7141;-61
2022/12/28 00:18:48;;;;;;;;;;;;;;;;;;1877721;28;8026;-62
2022/12/28 00:19:46;;;;;;;;;;;;;;;;;;1882289;28;7145;-63
2022/12/28 00:20:43;;;;;;;;;;;;;;;;;;1882247;28;7205;-63
2022/12/28 00:21:41;;;;;;;;;;;;;;;;;;1881876;28;7140;-63
2022/12/28 00:22:39;;;;;;;;;;;;;;;;;;1881872;28;7180;-62
2022/12/28 00:23:36;;;;;;;;;;;;;;;;;;1882212;28;7042;-62
2022/12/28 00:24:34;;;;;;;;;;;;;;;;;;1881982;28;7400;-61
2022/12/28 00:25:33;;;;;;;;;;;;;;;;;;1882067;28;7009;-62
2022/12/28 00:26:32;;;;;;;;;;;;;;;;;;1882646;28;7038;-62
2022/12/28 00:27:30;;;;;;;;;;;;;;;;;;1882551;28;8016;-62
2022/12/28 00:28:27;;;;;;;;;;;;;;;;;;1882250;28;7010;-61
2022/12/28 00:29:24;;;;;;;;;;;;;;;;;;1882417;28;7097;-62
2022/12/28 00:30:22;;;;;;;;;;;;;;;;;;1882376;28;7483;-61
2022/12/28 00:31:19;;;;;;;;;;;;;;;;;;1881958;28;7042;-61
2022/12/28 00:32:16;;;;;;;;;;;;;;;;;;1882115;28;7010;-62
2022/12/28 00:33:14;;;;;;;;;;;;;;;;;;1882318;28;8159;-62
2022/12/28 00:34:11;;;;;;;;;;;;;;;;;;1881019;28;8006;-62
2022/12/28 00:35:08;;;;;;;;;;;;;;;;;;1882031;28;7080;-62
2022/12/28 00:36:07;;;;;;;;;;;;;;;;;;1881911;28;7196;-62
2022/12/28 00:37:04;;;;;;;;;;;;;;;;;;1881982;28;7046;-62
2022/12/28 00:38:09;;;;;;;;;;;;;;;;;;1881967;28;8120;-61
2022/12/28 00:39:06;;;;;;;;;;;;;;;;;;1881619;28;7010;-62
2022/12/28 00:40:04;;;;;;;;;;;;;;;;;;1881610;28;8123;-63
2022/12/28 00:41:01;;;;;;;;;;;;;;;;;;1882389;28;7137;-63
2022/12/28 00:41:58;;;;;;;;;;;;;;;;;;1882128;28;7560;-62
2022/12/28 00:42:56;;;;;;;;;;;;;;;;;;1882746;28;7133;-62
2022/12/28 00:43:53;;;;;;;;;;;;;;;;;;1881944;28;7149;-62
2022/12/28 00:44:50;;;;;;;;;;;;;;;;;;1882596;28;7013;-62
2022/12/28 00:45:48;;;;;;;;;;;;;;;;;;1887373;28;7157;-62
2022/12/28 00:46:45;;;;;;;;;;;;;;;;;;1889246;28;7010;-62
2022/12/28 00:47:43;;;;;;;;;;;;;;;;;;1880866;28;7120;-63
2022/12/28 00:48:40;;;;;;;;;;;;;;;;;;1879090;28;7046;-62
2022/12/28 00:49:37;;;;;;;;;;;;;;;;;;1880462;28;7042;-62
2022/12/28 00:50:35;;;;;;;;;;;;;;;;;;1884467;28;7097;-61
2022/12/28 00:51:32;;;;;;;;;;;;;;;;;;1883686;28;7173;-62
2022/12/28 00:52:30;;;;;;;;;;;;;;;;;;1885205;28;8036;-62
2022/12/28 00:53:27;;;;;;;;;;;;;;;;;;1882756;28;7369;-62
2022/12/28 00:54:24;;;;;;;;;;;;;;;;;;1886903;28;7010;-62
2022/12/28 00:55:22;;;;;;;;;;;;;;;;;;1884748;28;7021;-62
2022/12/28 00:56:21;;;;;;;;;;;;;;;;;;1887281;28;7096;-63
2022/12/28 00:57:18;;;;;;;;;;;;;;;;;;1881979;28;7976;-62
2022/12/28 00:58:15;;;;;;;;;;;;;;;;;;1883899;28;8460;-61
2022/12/28 00:59:13;;;;;;;;;;;;;;;;;;1883574;28;7086;-61
2022/12/28 01:00:11;;;;;;;;;;;;;;;;;;1889183;28;8047;-61
2022/12/28 01:01:14;;;;;;;;;;;;;;;;;;1883121;28;8027;-62
2022/12/28 01:02:12;;;;;;;;;;;;;;;;;;1885700;28;8019;-62
2022/12/28 01:03:09;;;;;;;;;;;;;;;;;;1881800;28;7018;-61
2022/12/28 01:04:07;;;;;;;;;;;;;;;;;;1881419;28;7143;-62
2022/12/28 01:05:05;;;;;;;;;;;;;;;;;;1883364;28;7038;-62
2022/12/28 01:06:06;;;;;;;;;;;;;;;;;;1885474;28;8440;-62
2022/12/28 01:07:03;;;;;;;;;;;;;;;;;;1885715;28;8067;-62
2022/12/28 01:08:01;;;;;;;;;;;;;;;;;;1887473;28;7017;-62
2022/12/28 01:08:59;;;;;;;;;;;;;;;;;;1885417;28;7364;-61
2022/12/28 01:09:56;;;;;;;;;;;;;;;;;;1883331;28;7157;-62
2022/12/28 01:10:53;;;;;;;;;;;;;;;;;;1883228;28;8047;-62
2022/12/28 01:11:51;;;;;;;;;;;;;;;;;;1883053;28;7042;-62
2022/12/28 01:12:48;;;;;;;;;;;;;;;;;;1888144;28;7092;-62
2022/12/28 01:13:47;;;;;;;;;;;;;;;;;;1888811;28;8111;-62
2022/12/28 01:14:44;;;;;;;;;;;;;;;;;;1885861;28;8047;-61
2022/12/28 01:15:41;;;;;;;;;;;;;;;;;;1889055;28;7081;-62
2022/12/28 01:16:39;;;;;;;;;;;;;;;;;;1889178;28;7120;-62
2022/12/28 01:17:37;;;;;;;;;;;;;;;;;;1888971;28;7073;-62
2022/12/28 01:18:35;;;;;;;;;;;;;;;;;;1882195;28;7148;-62
2022/12/28 01:19:32;;;;;;;;;;;;;;;;;;1881076;28;7006;-62
2022/12/28 01:20:29;;;;;;;;;;;;;;;;;;1883401;28;7018;-62
2022/12/28 01:21:28;;;;;;;;;;;;;;;;;;1885008;28;7010;-62
2022/12/28 01:22:26;;;;;;;;;;;;;;;;;;1880759;28;7054;-61
2022/12/28 01:23:23;;;;;;;;;;;;;;;;;;1884843;28;7006;-62
2022/12/28 01:24:21;;;;;;;;;;;;;;;;;;1879748;28;7005;-62
2022/12/28 01:25:19;;;;;;;;;;;;;;;;;;1888205;28;7018;-61
2022/12/28 01:26:16;;;;;;;;;;;;;;;;;;1882532;28;7059;-61
2022/12/28 01:27:14;;;;;;;;;;;;;;;;;;1883810;28;7568;-61
2022/12/28 01:28:11;;;;;;;;;;;;;;;;;;1883869;28;7037;-62
2022/12/28 01:29:08;;;;;;;;;;;;;;;;;;1887897;28;7021;-62
2022/12/28 01:30:06;;;;;;;;;;;;;;;;;;1882945;28;7042;-62
2022/12/28 01:31:06;;;;;;;;;;;;;;;;;;1889171;28;7065;-61
2022/12/28 01:32:03;;;;;;;;;;;;;;;;;;1889408;28;8102;-63
2022/12/28 01:33:01;;;;;;;;;;;;;;;;;;1886590;28;8151;-62
2022/12/28 01:33:58;;;;;;;;;;;;;;;;;;1889047;28;9135;-62
2022/12/28 01:34:55;;;;;;;;;;;;;;;;;;1883208;28;7336;-63
2022/12/28 01:35:53;;;;;;;;;;;;;;;;;;1886758;28;7005;-62
2022/12/28 01:36:50;;;;;;;;;;;;;;;;;;1885112;28;7050;-62
2022/12/28 01:37:47;;;;;;;;;;;;;;;;;;1883918;28;7009;-61
2022/12/28 01:38:45;;;;;;;;;;;;;;;;;;1882009;28;7135;-63
2022/12/28 01:39:43;;;;;;;;;;;;;;;;;;1881761;28;7092;-63
2022/12/28 01:40:43;;;;;;;;;;;;;;;;;;1882801;28;7631;-62
2022/12/28 01:41:41;;;;;;;;;;;;;;;;;;1884362;28;8002;-62
2022/12/28 01:42:38;;;;;;;;;;;;;;;;;;1886131;28;9283;-61
2022/12/28 01:43:41;;;;;;;;;;;;;;;;;;1882046;28;8014;-62
2022/12/28 01:44:42;;;;;;;;;;;;;;;;;;1881759;28;7384;-62
2022/12/28 01:45:41;;;;;;;;;;;;;;;;;;1880729;28;7014;-61
2022/12/28 01:46:38;;;;;;;;;;;;;;;;;;1881700;28;7046;-62
2022/12/28 01:47:35;;;;;;;;;;;;;;;;;;1881880;28;7022;-62
2022/12/28 01:48:35;;;;;;;;;;;;;;;;;;1878967;28;7017;-61
2022/12/28 01:49:36;;;;;;;;;;;;;;;;;;1879195;28;7009;-60
2022/12/28 01:50:34;;;;;;;;;;;;;;;;;;1882003;28;7963;-62
2022/12/28 01:51:42;;;;;;;;;;;;;;;;;;1881893;28;8010;-62
2022/12/28 01:52:53;;;;;;;;;;;;;;;;;;1881877;28;7123;-62
2022/12/28 01:53:53;;;;;;;;;;;;;;;;;;1881961;28;8047;-61
2022/12/28 01:54:54;;;;;;;;;;;;;;;;;;1882345;28;7073;-62
2022/12/28 01:55:52;;;;;;;;;;;;;;;;;;1883800;28;7045;-62
2022/12/28 01:56:51;;;;;;;;;;;;;;;;;;1883218;28;8227;-62
2022/12/28 01:58:02;;;;;;;;;;;;;;;;;;1882884;28;7010;-61
2022/12/28 01:58:59;;;;;;;;;;;;;;;;;;1883366;28;7132;-62
2022/12/28 02:00:04;;;;;;;;;;;;;;;;;;1882976;28;7050;-60
2022/12/28 02:01:02;;;;;;;;;;;;;;;;;;1883359;28;7050;-62
2022/12/28 02:02:00;;;;;;;;;;;;;;;;;;1883776;28;7061;-62
2022/12/28 02:03:02;;;;;;;;;;;;;;;;;;1883282;28;8019;-62
2022/12/28 02:03:59;;;;;;;;;;;;;;;;;;1881672;28;7093;-62
2022/12/28 02:04:58;;;;;;;;;;;;;;;;;;1882099;28;7034;-62
2022/12/28 02:05:59;;;;;;;;;;;;;;;;;;1883753;28;8102;-62
2022/12/28 02:06:57;;;;;;;;;;;;;;;;;;1883115;28;8111;-62
2022/12/28 02:07:54;;;;;;;;;;;;;;;;;;1883076;28;7006;-62
2022/12/28 02:09:06;;;;;;;;;;;;;;;;;;1878139;28;7320;-62
2022/12/28 02:10:03;;;;;;;;;;;;;;;;;;1874609;28;7013;-62
2022/12/28 02:11:21;;;;;;;;;;;;;;;;;;1882834;28;7319;-62
2022/12/28 02:12:19;;;;;;;;;;;;;;;;;;1883109;28;7109;-63
2022/12/28 02:13:17;;;;;;;;;;;;;;;;;;1883680;28;7423;-60
2022/12/28 02:14:17;;;;;;;;;;;;;;;;;;1883282;28;7010;-61
2022/12/28 02:15:14;;;;;;;;;;;;;;;;;;1881751;28;8050;-62
2022/12/28 02:16:19;;;;;;;;;;;;;;;;;;1883066;28;7038;-62
2022/12/28 02:17:16;;;;;;;;;;;;;;;;;;1883080;28;8011;-62
2022/12/28 02:18:15;;;;;;;;;;;;;;;;;;1881862;28;7005;-62
2022/12/28 02:19:19;;;;;;;;;;;;;;;;;;1879024;28;8058;-62
2022/12/28 02:20:16;;;;;;;;;;;;;;;;;;1875124;28;7445;-62
2022/12/28 02:21:29;;;;;;;;;;;;;;;;;;1883258;28;7042;-62
2022/12/28 02:22:45;;;;;;;;;;;;;;;;;;1883232;28;7006;-62
2022/12/28 02:24:01;;;;;;;;;;;;;;;;;;1883469;28;7009;-61
2022/12/28 02:25:07;;;;;;;;;;;;;;;;;;1882716;28;7124;-62
2022/12/28 02:26:18;;;;;;;;;;;;;;;;;;1882878;28;7110;-62
2022/12/28 02:27:31;;;;;;;;;;;;;;;;;;1882710;28;7109;-61
2022/12/28 02:28:43;;;;;;;;;;;;;;;;;;1883286;28;7096;-62
2022/12/28 02:29:41;;;;;;;;;;;;;;;;;;1882788;28;7998;-62
2022/12/28 02:30:43;;;;;;;;;;;;;;;;;;1882881;28;7074;-62
2022/12/28 02:31:49;;;;;;;;;;;;;;;;;;1883268;28;7152;-62
2022/12/28 02:32:52;;;;;;;;;;;;;;;;;;1881019;28;7593;-62
2022/12/28 02:33:57;;;;;;;;;;;;;;;;;;1876918;28;8024;-62
2022/12/28 02:35:13;;;;;;;;;;;;;;;;;;1883347;28;8231;-62
2022/12/28 02:36:16;;;;;;;;;;;;;;;;;;1885858;28;8013;-61
2022/12/28 02:37:29;;;;;;;;;;;;;;;;;;1889784;28;8075;-62
2022/12/28 02:38:26;;;;;;;;;;;;;;;;;;1883137;28;8050;-61
2022/12/28 02:39:30;;;;;;;;;;;;;;;;;;1881519;28;7010;-62
2022/12/28 02:40:33;;;;;;;;;;;;;;;;;;1882813;28;8022;-62
2022/12/28 02:41:33;;;;;;;;;;;;;;;;;;1883724;28;8475;-62
2022/12/28 02:42:33;;;;;;;;;;;;;;;;;;1880291;28;7155;-62
2022/12/28 02:43:32;;;;;;;;;;;;;;;;;;1874636;28;7010;-63
2022/12/28 02:50:59;;;;;;;;;;;;;;;;;;1882745;28;7062;-62
2022/12/28 02:52:07;;;;;;;;;;;;;;;;;;1882660;28;7117;-61
2022/12/28 02:53:14;;;;;;;;;;;;;;;;;;1883033;28;7010;-62
2022/12/28 02:56:05;;;;;;;;;;;;;;;;;;1881372;28;7014;-62
2022/12/28 02:57:02;;;;;;;;;;;;;;;;;;1882792;28;8082;-62
2022/12/28 02:58:30;;;;;;;;;;;;;;;;;;1881636;28;7994;-62
2022/12/28 02:59:54;;;;;;;;;;;;;;;;;;1882832;28;7146;-63
2022/12/28 03:00:57;;;;;;;;;;;;;;;;;;1881602;28;7124;-61
2022/12/28 03:02:07;;;;;;;;;;;;;;;;;;1882825;28;7446;-62
2022/12/28 03:03:10;;;;;;;;;;;;;;;;;;1881333;28;7138;-61
2022/12/28 03:04:11;;;;;;;;;;;;;;;;;;1881256;28;7006;-62
2022/12/28 03:08:18;;;;;;;;;;;;;;;;;;1882079;28;7205;-62
2022/12/28 03:08:20;;;;;;;;;;;;;;;;;;1881698;28;7312;-62
2022/12/28 03:09:29;;;;;;;;;;;;;;;;;;1883028;28;8189;-61
2022/12/28 03:10:45;;;;;;;;;;;;;;;;;;1882894;28;7045;-62
2022/12/28 03:11:48;;;;;;;;;;;;;;;;;;1883104;28;9073;-62
2022/12/28 03:12:55;;;;;;;;;;;;;;;;;;1883244;28;7156;-62
2022/12/28 03:13:59;;;;;;;;;;;;;;;;;;1882765;28;7050;-61
2022/12/28 03:15:10;;;;;;;;;;;;;;;;;;1882591;28;7139;-63
2022/12/28 03:16:11;;;;;;;;;;;;;;;;;;1882287;28;7329;-61
2022/12/28 03:31:41;;;;;;;;;;;;;;;;;;1882221;28;8476;-62
2022/12/28 03:32:38;;;;;;;;;;;;;;;;;;1882661;28;7034;-61
2022/12/28 03:33:45;;;;;;;;;;;;;;;;;;1882798;28;8053;-61
2022/12/28 03:34:42;;;;;;;;;;;;;;;;;;1882702;28;7113;-62
2022/12/28 03:35:46;;;;;;;;;;;;;;;;;;1882338;28;7996;-62
2022/12/28 03:36:53;;;;;;;;;;;;;;;;;;1882743;28;8012;-62
2022/12/28 03:37:56;;;;;;;;;;;;;;;;;;1881200;28;7156;-62
2022/12/28 03:38:53;;;;;;;;;;;;;;;;;;1880940;28;7301;-62
2022/12/28 03:39:55;;;;;;;;;;;;;;;;;;1882030;28;7092;-62
2022/12/28 03:41:08;;;;;;;;;;;;;;;;;;1876122;28;7921;-62
2022/12/28 03:43:46;;;;;;;;;;;;;;;;;;1873955;28;7010;-62
2022/12/28 03:44:49;;;;;;;;;;;;;;;;;;1874923;28;7089;-61
2022/12/28 03:45:47;;;;;;;;;;;;;;;;;;1875389;28;7167;-62
2022/12/28 03:47:04;;;;;;;;;;;;;;;;;;1875087;28;7013;-62
2022/12/28 03:48:02;;;;;;;;;;;;;;;;;;1875375;28;7055;-62
2022/12/28 03:49:00;;;;;;;;;;;;;;;;;;1865308;28;7115;-62
2022/12/28 03:49:58;;;;;;;;;;;;;;;;;;1872983;28;7369;-62
2022/12/28 03:50:56;;;;;;;;;;;;;;;;;;1874541;28;7093;-62
2022/12/28 03:51:55;;;;;;;;;;;;;;;;;;1875117;28;7129;-62
2022/12/28 03:52:52;;;;;;;;;;;;;;;;;;1874907;28;7046;-62
2022/12/28 03:53:50;;;;;;;;;;;;;;;;;;1873606;28;7317;-62
2022/12/28 03:54:47;;;;;;;;;;;;;;;;;;1875163;28;7124;-61
2022/12/28 03:55:44;;;;;;;;;;;;;;;;;;1874533;28;7156;-62
2022/12/28 03:56:50;;;;;;;;;;;;;;;;;;1874887;28;7133;-62
2022/12/28 03:57:47;;;;;;;;;;;;;;;;;;1875141;28;7439;-62
2022/12/28 03:58:45;;;;;;;;;;;;;;;;;;1875203;28;7014;-61
2022/12/28 03:59:43;;;;;;;;;;;;;;;;;;1875017;28;7063;-62
2022/12/28 04:00:40;;;;;;;;;;;;;;;;;;1875093;28;7017;-62
2022/12/28 04:01:38;;;;;;;;;;;;;;;;;;1875297;28;7014;-62
2022/12/28 04:02:35;;;;;;;;;;;;;;;;;;1873018;28;7494;-61
2022/12/28 04:03:33;;;;;;;;;;;;;;;;;;1874455;28;8043;-62
2022/12/28 04:04:31;;;;;;;;;;;;;;;;;;1874029;28;7047;-62
2022/12/28 04:05:28;;;;;;;;;;;;;;;;;;1874433;28;7006;-62
2022/12/28 04:06:25;;;;;;;;;;;;;;;;;;1875396;28;7316;-61
2022/12/28 04:07:24;;;;;;;;;;;;;;;;;;1875140;28;7462;-62
2022/12/28 04:08:21;;;;;;;;;;;;;;;;;;1875080;28;7909;-62
2022/12/28 04:09:18;;;;;;;;;;;;;;;;;;1874860;28;7038;-62
2022/12/28 04:10:16;;;;;;;;;;;;;;;;;;1875034;28;7038;-62
2022/12/28 04:11:13;;;;;;;;;;;;;;;;;;1874453;28;7076;-62
2022/12/28 04:12:13;;;;;;;;;;;;;;;;;;1874923;28;8026;-62
2022/12/28 04:13:10;;;;;;;;;;;;;;;;;;1875253;28;7046;-61
2022/12/28 04:14:08;;;;;;;;;;;;;;;;;;1874537;28;7120;-62
2022/12/28 04:15:07;;;;;;;;;;;;;;;;;;1873865;28;7018;-61
2022/12/28 04:16:07;;;;;;;;;;;;;;;;;;1874442;28;8032;-62
2022/12/28 04:17:04;;;;;;;;;;;;;;;;;;1874529;28;8024;-62
2022/12/28 04:18:02;;;;;;;;;;;;;;;;;;1873429;28;7014;-62
2022/12/28 04:18:59;;;;;;;;;;;;;;;;;;1874907;28;8044;-61
2022/12/28 04:19:56;;;;;;;;;;;;;;;;;;1875738;28;7014;-62
2022/12/28 04:20:54;;;;;;;;;;;;;;;;;;1873475;28;8063;-61
2022/12/28 04:21:51;;;;;;;;;;;;;;;;;;1875347;28;7042;-62
2022/12/28 04:22:49;;;;;;;;;;;;;;;;;;1874714;28;7157;-62
2022/12/28 04:23:46;;;;;;;;;;;;;;;;;;1874188;28;7017;-62
2022/12/28 04:24:43;;;;;;;;;;;;;;;;;;1874724;28;7297;-63
2022/12/28 04:25:41;;;;;;;;;;;;;;;;;;1874460;28;7182;-62
2022/12/28 04:26:38;;;;;;;;;;;;;;;;;;1875608;28;7384;-62
2022/12/28 04:27:36;;;;;;;;;;;;;;;;;;1875012;28;7022;-61
2022/12/28 04:28:34;;;;;;;;;;;;;;;;;;1875003;28;7270;-62
2022/12/28 04:29:31;;;;;;;;;;;;;;;;;;1875038;28;7104;-62
2022/12/28 04:30:28;;;;;;;;;;;;;;;;;;1869889;28;7184;-62
2022/12/28 04:31:26;;;;;;;;;;;;;;;;;;1874311;28;7010;-61
2022/12/28 04:32:24;;;;;;;;;;;;;;;;;;1874413;28;7006;-62
2022/12/28 04:33:21;;;;;;;;;;;;;;;;;;1873922;28;7006;-62
2022/12/28 04:34:19;;;;;;;;;;;;;;;;;;1875127;28;7148;-62
2022/12/28 04:35:16;;;;;;;;;;;;;;;;;;1874615;28;7006;-62
2022/12/28 04:36:15;;;;;;;;;;;;;;;;;;1873596;28;7125;-61
2022/12/28 04:37:12;;;;;;;;;;;;;;;;;;1874905;28;7017;-65
2022/12/28 04:38:10;;;;;;;;;;;;;;;;;;1873039;28;8003;-62
2022/12/28 04:39:07;;;;;;;;;;;;;;;;;;1875020;28;7006;-62
2022/12/28 04:40:05;;;;;;;;;;;;;;;;;;1874421;28;8304;-62
2022/12/28 04:41:03;;;;;;;;;;;;;;;;;;1874087;28;7093;-62
2022/12/28 04:42:00;;;;;;;;;;;;;;;;;;1873667;28;7101;-62
2022/12/28 04:42:58;;;;;;;;;;;;;;;;;;1876746;28;8039;-62
2022/12/28 04:43:56;;;;;;;;;;;;;;;;;;1881936;28;8031;-62
2022/12/28 04:44:53;;;;;;;;;;;;;;;;;;1882120;28;7142;-60
2022/12/28 04:45:57;;;;;;;;;;;;;;;;;;1881923;28;7117;-62
2022/12/28 04:46:55;;;;;;;;;;;;;;;;;;1882671;28;7009;-62
2022/12/28 04:47:55;;;;;;;;;;;;;;;;;;1879531;28;7022;-62
2022/12/28 04:48:52;;;;;;;;;;;;;;;;;;1882685;28;7195;-62
2022/12/28 04:49:50;;;;;;;;;;;;;;;;;;1881781;28;7277;-63
2022/12/28 04:50:47;;;;;;;;;;;;;;;;;;1882116;28;7210;-61
2022/12/28 04:51:44;;;;;;;;;;;;;;;;;;1882389;28;7416;-62
2022/12/28 04:52:42;;;;;;;;;;;;;;;;;;1881705;28;7040;-62
2022/12/28 04:53:40;;;;;;;;;;;;;;;;;;1879082;28;7131;-62
2022/12/28 04:54:37;;;;;;;;;;;;;;;;;;1881979;28;7123;-62
2022/12/28 04:55:35;;;;;;;;;;;;;;;;;;1882293;28;7389;-63
2022/12/28 04:56:32;;;;;;;;;;;;;;;;;;1881798;28;8031;-62
2022/12/28 04:57:29;;;;;;;;;;;;;;;;;;1882503;28;8028;-62
2022/12/28 04:58:27;;;;;;;;;;;;;;;;;;1881618;28;8015;-62
2022/12/28 04:59:24;;;;;;;;;;;;;;;;;;1881754;28;7006;-61
2022/12/28 05:00:21;;;;;;;;;;;;;;;;;;1881899;28;7030;-62
2022/12/28 05:01:19;;;;;;;;;;;;;;;;;;1878950;28;7042;-62
2022/12/28 05:02:16;;;;;;;;;;;;;;;;;;1875347;28;7093;-62
2022/12/28 05:03:14;;;;;;;;;;;;;;;;;;1877557;28;7184;-62
2022/12/28 05:04:11;;;;;;;;;;;;;;;;;;1881155;28;7124;-62
2022/12/28 05:05:09;;;;;;;;;;;;;;;;;;1881846;28;7122;-62
2022/12/28 05:06:09;;;;;;;;;;;;;;;;;;1882519;28;7078;-62
2022/12/28 05:07:06;;;;;;;;;;;;;;;;;;1880614;28;7037;-62
2022/12/28 05:08:04;;;;;;;;;;;;;;;;;;1881916;28;7129;-62
2022/12/28 05:09:01;;;;;;;;;;;;;;;;;;1882042;28;7042;-62
2022/12/28 05:09:59;;;;;;;;;;;;;;;;;;1882091;28;7022;-61
2022/12/28 05:11:03;;;;;;;;;;;;;;;;;;1881886;28;9334;-62
2022/12/28 05:12:00;;;;;;;;;;;;;;;;;;1881815;28;7005;-62
2022/12/28 05:12:58;;;;;;;;;;;;;;;;;;1881485;28;7001;-62
2022/12/28 05:13:55;;;;;;;;;;;;;;;;;;1881405;28;7010;-62
2022/12/28 05:14:53;;;;;;;;;;;;;;;;;;1881090;28;7037;-62
2022/12/28 05:15:50;;;;;;;;;;;;;;;;;;1881719;28;8124;-62
2022/12/28 05:16:51;;;;;;;;;;;;;;;;;;1882029;28;7010;-61
2022/12/28 05:17:48;;;;;;;;;;;;;;;;;;1880906;28;7010;-62
2022/12/28 05:18:46;;;;;;;;;;;;;;;;;;1882101;28;7009;-61
2022/12/28 05:19:43;;;;;;;;;;;;;;;;;;1880108;28;7983;-62
2022/12/28 05:20:41;;;;;;;;;;;;;;;;;;1881586;28;7006;-62
2022/12/28 05:21:38;;;;;;;;;;;;;;;;;;1880637;28;7029;-62
2022/12/28 05:22:35;;;;;;;;;;;;;;;;;;1874764;28;7018;-62
2022/12/28 05:23:37;;;;;;;;;;;;;;;;;;1874917;28;7097;-61
2022/12/28 05:24:34;;;;;;;;;;;;;;;;;;1882402;28;7940;-62
2022/12/28 05:25:32;;;;;;;;;;;;;;;;;;1880039;28;8020;-61
2022/12/28 05:26:29;;;;;;;;;;;;;;;;;;1881526;28;7014;-61
2022/12/28 05:27:26;;;;;;;;;;;;;;;;;;1881739;28;7203;-61
2022/12/28 05:28:25;;;;;;;;;;;;;;;;;;1881484;28;7006;-61
2022/12/28 05:29:22;;;;;;;;;;;;;;;;;;1881709;28;7122;-61
2022/12/28 05:30:19;;;;;;;;;;;;;;;;;;1881597;28;7831;-62
2022/12/28 05:31:18;;;;;;;;;;;;;;;;;;1881995;28;7148;-62
2022/12/28 05:32:16;;;;;;;;;;;;;;;;;;1881601;28;7069;-61
2022/12/28 05:33:14;;;;;;;;;;;;;;;;;;1880051;28;7563;-60
2022/12/28 05:34:12;;;;;;;;;;;;;;;;;;1881777;28;7002;-62
2022/12/28 05:35:09;;;;;;;;;;;;;;;;;;1881824;28;7009;-61
2022/12/28 05:36:09;;;;;;;;;;;;;;;;;;1882475;28;7010;-62
2022/12/28 05:37:06;;;;;;;;;;;;;;;;;;1880546;28;7022;-61
2022/12/28 05:38:03;;;;;;;;;;;;;;;;;;1881802;28;7042;-62
2022/12/28 05:39:01;;;;;;;;;;;;;;;;;;1882246;28;7006;-62
2022/12/28 05:39:58;;;;;;;;;;;;;;;;;;1880325;28;7033;-61
2022/12/28 05:40:55;;;;;;;;;;;;;;;;;;1880871;28;7109;-62
2022/12/28 05:41:53;;;;;;;;;;;;;;;;;;1876529;28;7037;-61
2022/12/28 05:42:50;;;;;;;;;;;;;;;;;;1874239;28;7007;-62
2022/12/28 05:43:48;;;;;;;;;;;;;;;;;;1880023;28;7929;-62
2022/12/28 05:44:45;;;;;;;;;;;;;;;;;;1882449;28;7054;-61
2022/12/28 05:45:43;;;;;;;;;;;;;;;;;;1880637;28;7967;-62
2022/12/28 05:46:40;;;;;;;;;;;;;;;;;;1882066;28;8046;-61
2022/12/28 05:47:38;;;;;;;;;;;;;;;;;;1880482;28;8064;-61
2022/12/28 05:48:36;;;;;;;;;;;;;;;;;;1882316;28;7337;-61
2022/12/28 05:49:33;;;;;;;;;;;;;;;;;;1882136;28;7313;-62
2022/12/28 05:50:31;;;;;;;;;;;;;;;;;;1881894;28;7001;-61
2022/12/28 05:51:30;;;;;;;;;;;;;;;;;;1882352;28;7065;-62
2022/12/28 05:52:29;;;;;;;;;;;;;;;;;;1880683;28;7010;-62
2022/12/28 05:53:27;;;;;;;;;;;;;;;;;;1880008;28;7034;-61
2022/12/28 05:54:24;;;;;;;;;;;;;;;;;;1881791;28;8012;-62
2022/12/28 05:55:22;;;;;;;;;;;;;;;;;;1881287;28;7117;-62
2022/12/28 05:56:21;;;;;;;;;;;;;;;;;;1881598;28;7138;-62
2022/12/28 05:57:18;;;;;;;;;;;;;;;;;;1881660;28;8063;-62
2022/12/28 05:58:15;;;;;;;;;;;;;;;;;;1881700;28;8626;-61
2022/12/28 05:59:13;;;;;;;;;;;;;;;;;;1881781;28;7006;-61
2022/12/28 06:00:10;;;;;;;;;;;;;;;;;;1881676;28;7117;-61
2022/12/28 06:01:09;;;;;;;;;;;;;;;;;;1879838;28;7057;-61
2022/12/28 06:02:07;;;;;;;;;;;;;;;;;;1877843;28;7046;-61
2022/12/28 06:03:05;;;;;;;;;;;;;;;;;;1879883;28;7029;-62
2022/12/28 06:04:07;;;;;;;;;;;;;;;;;;1873949;28;7030;-62
2022/12/28 06:05:05;;;;;;;;;;;;;;;;;;1876090;28;7089;-62
2022/12/28 06:06:04;;;;;;;;;;;;;;;;;;1882069;28;8088;-61
2022/12/28 06:07:01;;;;;;;;;;;;;;;;;;1881760;28;7005;-61
2022/12/28 06:07:59;;;;;;;;;;;;;;;;;;1881530;28;7130;-62
2022/12/28 06:08:57;;;;;;;;;;;;;;;;;;1881511;28;8203;-62
2022/12/28 06:09:54;;;;;;;;;;;;;;;;;;1881862;28;8156;-60
2022/12/28 06:10:52;;;;;;;;;;;;;;;;;;1881361;28;8116;-61
2022/12/28 06:11:49;;;;;;;;;;;;;;;;;;1880263;28;7009;-61
2022/12/28 06:12:47;;;;;;;;;;;;;;;;;;1881725;28;7014;-62
2022/12/28 06:13:45;;;;;;;;;;;;;;;;;;1882115;28;7018;-62
2022/12/28 06:14:42;;;;;;;;;;;;;;;;;;1881083;28;7051;-62
2022/12/28 06:15:40;;;;;;;;;;;;;;;;;;1881818;28;7296;-62
2022/12/28 06:16:39;;;;;;;;;;;;;;;;;;1881750;28;8124;-61
2022/12/28 06:17:37;;;;;;;;;;;;;;;;;;1880482;28;7485;-61
2022/12/28 06:18:35;;;;;;;;;;;;;;;;;;1881586;28;7096;-62
2022/12/28 06:19:32;;;;;;;;;;;;;;;;;;1881052;28;7017;-62
2022/12/28 06:20:29;;;;;;;;;;;;;;;;;;1880528;28;8048;-61
2022/12/28 06:21:28;;;;;;;;;;;;;;;;;;1881325;28;7344;-62
2022/12/28 06:22:26;;;;;;;;;;;;;;;;;;1881480;28;7009;-62
2022/12/28 06:23:23;;;;;;;;;;;;;;;;;;1879562;28;7432;-62
2022/12/28 06:24:21;;;;;;;;;;;;;;;;;;1881068;28;7150;-62
2022/12/28 06:25:18;;;;;;;;;;;;;;;;;;1875599;28;7093;-61
2022/12/28 06:26:17;;;;;;;;;;;;;;;;;;1874073;28;8123;-61
2022/12/28 06:27:14;;;;;;;;;;;;;;;;;;1880816;28;7010;-62
2022/12/28 06:28:11;;;;;;;;;;;;;;;;;;1881515;28;7951;-62
2022/12/28 06:29:09;;;;;;;;;;;;;;;;;;1881366;28;7144;-61
2022/12/28 06:30:07;;;;;;;;;;;;;;;;;;1881374;28;7142;-61
2022/12/28 06:31:10;;;;;;;;;;;;;;;;;;1882150;28;7002;-62
2022/12/28 06:32:07;;;;;;;;;;;;;;;;;;1880728;28;7994;-60
2022/12/28 06:33:05;;;;;;;;;;;;;;;;;;1879905;28;7067;-61
2022/12/28 06:34:03;;;;;;;;;;;;;;;;;;1881594;28;7113;-62
2022/12/28 06:35:01;;;;;;;;;;;;;;;;;;1882000;28;7010;-61
2022/12/28 06:35:59;;;;;;;;;;;;;;;;;;1881467;28;7010;-61
2022/12/28 06:36:56;;;;;;;;;;;;;;;;;;1880691;28;8229;-62
2022/12/28 06:37:54;;;;;;;;;;;;;;;;;;1875622;28;7267;-62
2022/12/28 06:38:53;;;;;;;;;;;;;;;;;;1867912;29;7010;-62
2022/12/28 06:39:50;;;;;;;;;;;;;;;;;;1873771;28;7521;-62
2022/12/28 06:40:47;;;;;;;;;;;;;;;;;;1881951;28;7046;-62
2022/12/28 06:42:05;;;;;;;;;;;;;;;;;;1881812;28;8032;-61
2022/12/28 06:43:02;;;;;;;;;;;;;;;;;;1882568;28;9085;-62
2022/12/28 06:44:00;;;;;;;;;;;;;;;;;;1883219;28;7174;-62
2022/12/28 06:45:00;;;;;;;;;;;;;;;;;;1882860;28;7162;-61
2022/12/28 06:45:58;;;;;;;;;;;;;;;;;;1883658;28;8052;-61
2022/12/28 06:46:55;;;;;;;;;;;;;;;;;;1883800;28;7038;-63
2022/12/28 06:47:53;;;;;;;;;;;;;;;;;;1881221;28;7006;-62
2022/12/28 06:48:51;;;;;;;;;;;;;;;;;;1882198;28;7132;-61
2022/12/28 06:49:48;;;;;;;;;;;;;;;;;;1882757;28;7005;-60
2022/12/28 06:50:53;;;;;;;;;;;;;;;;;;1883618;28;7117;-62
2022/12/28 06:51:50;;;;;;;;;;;;;;;;;;1882823;28;7113;-62
2022/12/28 06:52:48;;;;;;;;;;;;;;;;;;1882780;28;8043;-62
2022/12/28 06:53:46;;;;;;;;;;;;;;;;;;1880661;28;7142;-62
2022/12/28 06:54:44;;;;;;;;;;;;;;;;;;1882796;28;7124;-62
2022/12/28 06:55:41;;;;;;;;;;;;;;;;;;1882521;28;7009;-62
2022/12/28 06:56:39;;;;;;;;;;;;;;;;;;1882662;28;7054;-62
2022/12/28 06:57:36;;;;;;;;;;;;;;;;;;1882021;28;7097;-62
2022/12/28 06:58:33;;;;;;;;;;;;;;;;;;1882575;28;7027;-62
2022/12/28 06:59:31;;;;;;;;;;;;;;;;;;1882354;28;7006;-62
2022/12/28 07:00:28;;;;;;;;;;;;;;;;;;1882158;28;9275;-62
2022/12/28 07:01:27;;;;;;;;;;;;;;;;;;1881633;28;7148;-62
2022/12/28 07:02:25;;;;;;;;;;;;;;;;;;1882433;28;7096;-62
2022/12/28 07:03:23;;;;;;;;;;;;;;;;;;1880678;28;8051;-62
2022/12/28 07:04:20;;;;;;;;;;;;;;;;;;1882112;28;7014;-62
2022/12/28 07:05:18;;;;;;;;;;;;;;;;;;1882111;28;7025;-62
2022/12/28 07:06:16;;;;;;;;;;;;;;;;;;1881679;28;7204;-61
2022/12/28 07:07:13;;;;;;;;;;;;;;;;;;1881864;28;7157;-62
2022/12/28 07:08:11;;;;;;;;;;;;;;;;;;1882095;28;7010;-62
2022/12/28 07:09:12;;;;;;;;;;;;;;;;;;1881708;28;7100;-62
2022/12/28 07:10:09;;;;;;;;;;;;;;;;;;1881184;28;7113;-61
2022/12/28 07:11:08;;;;;;;;;;;;;;;;;;1882173;28;7224;-61
2022/12/28 07:12:06;;;;;;;;;;;;;;;;;;1882075;28;7288;-62
2022/12/28 07:13:04;;;;;;;;;;;;;;;;;;1882661;28;7001;-61
2022/12/28 07:14:01;;;;;;;;;;;;;;;;;;1881654;28;7006;-62
2022/12/28 07:14:59;;;;;;;;;;;;;;;;;;1882427;28;7177;-62
2022/12/28 07:15:56;;;;;;;;;;;;;;;;;;1882534;28;7116;-62
2022/12/28 07:16:53;;;;;;;;;;;;;;;;;;1882593;28;8037;-61
2022/12/28 07:17:51;;;;;;;;;;;;;;;;;;1881288;28;7006;-61